^^
NorthLandsweather Station Historical Data
Daily Summary for August 21, 2019 Units:  Metric    English   Both
Daily Weekly Monthly Yearly Custom
  High: Low: Average:
Temperature: 22.3 °C 11.6 °C 17.1 °C
Dew Point: 17.3 °C 9.7 °C 12.6 °C
Humidity: 95% 47% 77%
Wind Speed: 16.7km/h 0km/h 3.2km/h
Wind Gust: 9km/h - -
Wind- - WSW
Pressure: 1017.2 hPa 1014.1 hPa -
Precipitation: 0 mm    
Historical Graphs
 
 
Tabular Data for August 21, 2019
Time Temperature Dew Point Pressure Wind Wind Speed Wind Gust Humidity Rainfall Rate (Hourly) solar
00:00 18.8 °C 17.3 °C 1015.1 hPa Calm     91% 0 mm 0.00 W/m2
00:05 18.7 °C 17.2 °C 1015.1 hPa Calm     91% 0 mm 0.00 W/m2
00:10 18.6 °C 17.1 °C 1015.5 hPa Calm     91% 0 mm 0.00 W/m2
00:15 18.3 °C 16.8 °C 1015.5 hPa Calm     91% 0 mm 0.00 W/m2
00:20 18.2 °C 16.7 °C 1015.5 hPa Calm     91% 0 mm 0.00 W/m2
00:25 18.1 °C 16.7 °C 1015.5 hPa Calm     92% 0 mm 0.00 W/m2
00:30 17.8 °C 16.5 °C 1015.5 hPa Calm     92% 0 mm 0.00 W/m2
00:35 17.7 °C 16.4 °C 1015.5 hPa Calm     92% 0 mm 0.00 W/m2
00:40 17.6 °C 16.3 °C 1015.5 hPa Calm     92% 0 mm 0.00 W/m2
00:45 17.5 °C 16.2 °C 1015.5 hPa Calm     92% 0 mm 0.00 W/m2
00:50 17.4 °C 16.1 °C 1015.5 hPa Calm     92% 0 mm 0.00 W/m2
00:55 17.3 °C 15.9 °C 1015.5 hPa Calm     92% 0 mm 0.00 W/m2
01:00 17.1 °C 15.8 °C 1015.5 hPa Calm     92% 0 mm 0.00 W/m2
01:05 16.9 °C 15.6 °C 1015.5 hPa Calm     92% 0 mm 0.00 W/m2
01:10 16.8 °C 15.5 °C 1015.8 hPa Calm     92% 0 mm 0.00 W/m2
01:15 16.7 °C 15.4 °C 1015.8 hPa Calm     92% 0 mm 0.00 W/m2
01:20 16.6 °C 15.3 °C 1015.8 hPa Calm     92% 0 mm 0.00 W/m2
01:25 16.5 °C 15.2 °C 1015.8 hPa Calm     92% 0 mm 0.00 W/m2
01:30 16.4 °C 15.1 °C 1015.8 hPa Calm     92% 0 mm 0.00 W/m2
01:35 16.3 °C 15 °C 1015.8 hPa Calm     92% 0 mm 0.00 W/m2
01:40 16.1 °C 14.8 °C 1015.8 hPa Calm     92% 0 mm 0.00 W/m2
01:45 16 °C 14.7 °C 1015.8 hPa Calm     92% 0 mm 0.00 W/m2
01:50 15.9 °C 14.6 °C 1015.8 hPa Calm     92% 0 mm 0.00 W/m2
01:55 15.8 °C 14.5 °C 1015.8 hPa Calm     92% 0 mm 0.00 W/m2
02:00 15.7 °C 14.4 °C 1015.8 hPa Calm     92% 0 mm 0.00 W/m2
02:05 15.6 °C 14.3 °C 1015.8 hPa Calm     92% 0 mm 0.00 W/m2
02:10 15.4 °C 14.3 °C 1015.8 hPa Calm     93% 0 mm 0.00 W/m2
02:15 15.3 °C 14.2 °C 1015.8 hPa Calm     93% 0 mm 0.00 W/m2
02:20 15.3 °C 14.2 °C 1015.8 hPa Calm     93% 0 mm 0.00 W/m2
02:25 15.3 °C 14.2 °C 1015.8 hPa Calm     93% 0 mm 0.00 W/m2
02:30 15.3 °C 14.2 °C 1016.1 hPa Calm     93% 0 mm 0.00 W/m2
02:35 15.3 °C 14.2 °C 1016.1 hPa Calm     93% 0 mm 0.00 W/m2
02:40 15.2 °C 14.1 °C 1016.1 hPa NNW 1.9 km/h 0.6 km/h 93% 0 mm 0.00 W/m2
02:45 15.2 °C 14.1 °C 1015.8 hPa North 4.8 km/h 0.2 km/h 93% 0 mm 0.00 W/m2
02:50 15.3 °C 14.2 °C 1015.8 hPa North 1.6 km/h   93% 0 mm 0.00 W/m2
02:55 15.4 °C 14.3 °C 1015.8 hPa SW 1.9 km/h 0.5 km/h 93% 0 mm 0.00 W/m2
03:00 15.4 °C 14.3 °C 1015.8 hPa SW 3.7 km/h 1.3 km/h 93% 0 mm 0.00 W/m2
03:05 15.4 °C 14.3 °C 1015.8 hPa SW 3.2 km/h 0.2 km/h 93% 0 mm 0.00 W/m2
03:10 15.4 °C 14.3 °C 1015.8 hPa SW 1.9 km/h 0.2 km/h 93% 0 mm 0.00 W/m2
03:15 15.3 °C 14.2 °C 1015.8 hPa SW 1.9 km/h 0.2 km/h 93% 0 mm 0.00 W/m2
03:20 15.3 °C 14.2 °C 1015.8 hPa Calm     93% 0 mm 0.00 W/m2
03:25 15.2 °C 14.1 °C 1015.8 hPa Calm     93% 0 mm 0.00 W/m2
03:30 15.1 °C 14 °C 1015.8 hPa Calm     93% 0 mm 0.00 W/m2
03:35 15 °C 13.9 °C 1015.8 hPa Calm     93% 0 mm 0.00 W/m2
03:40 14.9 °C 13.8 °C 1015.8 hPa Calm     93% 0 mm 0.00 W/m2
03:45 14.8 °C 13.7 °C 1015.5 hPa Calm     93% 0 mm 0.00 W/m2
03:50 14.7 °C 13.6 °C 1015.8 hPa SW 1.9 km/h 0.2 km/h 93% 0 mm 0.00 W/m2
03:55 14.7 °C 13.6 °C 1015.5 hPa Calm     93% 0 mm 0.00 W/m2
04:00 14.6 °C 13.5 °C 1015.5 hPa Calm     93% 0 mm 0.00 W/m2
04:05 14.6 °C 13.4 °C 1015.5 hPa Calm     93% 0 mm 0.00 W/m2
04:10 14.4 °C 13.3 °C 1015.5 hPa Calm     93% 0 mm 0.00 W/m2
04:15 14.3 °C 13.2 °C 1015.1 hPa Calm     93% 0 mm 0.00 W/m2
04:20 14.3 °C 13.2 °C 1015.1 hPa Calm     93% 0 mm 0.00 W/m2
04:25 14.2 °C 13.1 °C 1015.1 hPa Calm     93% 0 mm 0.00 W/m2
04:30 14.1 °C 12.9 °C 1014.8 hPa Calm     93% 0 mm 0.00 W/m2
04:35 13.9 °C 12.8 °C 1015.1 hPa Calm     93% 0 mm 0.00 W/m2
04:40 13.8 °C 12.7 °C 1014.8 hPa Calm     93% 0 mm 0.00 W/m2
04:45 13.7 °C 12.6 °C 1014.4 hPa Calm     93% 0 mm 0.00 W/m2
04:50 13.6 °C 12.5 °C 1014.8 hPa Calm     93% 0 mm 0.00 W/m2
04:55 13.4 °C 12.3 °C 1014.8 hPa Calm     93% 0 mm 0.00 W/m2
05:00 13.3 °C 12.2 °C 1014.8 hPa Calm     93% 0 mm 0.00 W/m2
05:05 13.2 °C 12.1 °C 1014.8 hPa Calm     93% 0 mm 0.00 W/m2
05:10 13.2 °C 12.1 °C 1014.4 hPa Calm     93% 0 mm 0.00 W/m2
05:15 13.1 °C 12 °C 1014.4 hPa Calm     93% 0 mm 0.00 W/m2
05:20 13.1 °C 11.9 °C 1014.4 hPa Calm     93% 0 mm 0.00 W/m2
05:25 13 °C 11.9 °C 1014.4 hPa Calm     93% 0 mm 0.00 W/m2
05:30 12.9 °C 11.8 °C 1014.4 hPa Calm     93% 0 mm 0.00 W/m2
05:35 12.8 °C 11.7 °C 1014.1 hPa Calm     93% 0 mm 0.00 W/m2
05:40 12.8 °C 11.7 °C 1014.1 hPa Calm     93% 0 mm 0.00 W/m2
05:45 12.7 °C 11.6 °C 1014.1 hPa Calm     93% 0 mm 0.00 W/m2
05:50 12.7 °C 11.6 °C 1014.1 hPa Calm     93% 0 mm 0.00 W/m2
05:55 12.6 °C 11.4 °C 1014.1 hPa Calm     93% 0 mm 0.00 W/m2
06:00 12.4 °C 11.3 °C 1014.4 hPa Calm     93% 0 mm 0.00 W/m2
06:05 12.4 °C 11.3 °C 1014.4 hPa SW 3.7 km/h 0.5 km/h 93% 0 mm 0.00 W/m2
06:10 12.4 °C 11.3 °C 1014.4 hPa Calm     93% 0 mm 123.90 W/m2
06:15 12.4 °C 11.3 °C 1014.4 hPa Calm     93% 0 mm 142.10 W/m2
06:20 12.3 °C 11.2 °C 1014.4 hPa Calm     93% 0 mm 166.30 W/m2
06:25 12.3 °C 11.2 °C 1014.1 hPa Calm     93% 0 mm 185.50 W/m2
06:30 12.2 °C 11.1 °C 1014.1 hPa Calm     93% 0 mm 190.60 W/m2
06:35 12.2 °C 11.3 °C 1014.1 hPa SW 1.9 km/h   94% 0 mm 202.70 W/m2
06:40 12.3 °C 11.3 °C 1014.4 hPa Calm     94% 0 mm 209.80 W/m2
06:45 12.2 °C 11.1 °C 1014.8 hPa Calm     93% 0 mm 213.80 W/m2
06:50 12.2 °C 11.1 °C 1014.8 hPa Calm     93% 0 mm 218.90 W/m2
06:55 12.2 °C 11.1 °C 1015.1 hPa Calm     93% 0 mm 216.80 W/m2
07:00 12.2 °C 11.3 °C 1015.5 hPa Calm     94% 0 mm 220.90 W/m2
07:05 12.2 °C 11.3 °C 1015.8 hPa SW 1.6 km/h   94% 0 mm 223.90 W/m2
07:10 12.2 °C 11.3 °C 1016.1 hPa SW 1.6 km/h   94% 0 mm 225.90 W/m2
07:15 12.3 °C 11.3 °C 1016.1 hPa Calm     94% 0 mm 229.00 W/m2
07:20 12.3 °C 11.4 °C 1016.1 hPa SW 1.9 km/h 0.2 km/h 94% 0 mm 227.90 W/m2
07:25 12.4 °C 11.5 °C 1015.8 hPa SW 1.6 km/h   94% 0 mm 229.00 W/m2
07:30 12.6 °C 11.7 °C 1015.8 hPa Calm     94% 0 mm 235.00 W/m2
07:35 12.7 °C 11.8 °C 1016.1 hPa SW 1.9 km/h 0.8 km/h 94% 0 mm 234.00 W/m2
07:40 12.9 °C 12 °C 1016.5 hPa SW 3.7 km/h 1.1 km/h 94% 0 mm 236.00 W/m2
07:45 13 °C 12.1 °C 1016.5 hPa SW 3.7 km/h 1 km/h 94% 0 mm 238.10 W/m2
07:50 13.2 °C 12.4 °C 1016.5 hPa SW 1.9 km/h 0.2 km/h 95% 0 mm 237.00 W/m2
07:55 13.3 °C 12.3 °C 1016.5 hPa SW 3.2 km/h   94% 0 mm 241.10 W/m2
08:00 13.5 °C 12.6 °C 1016.5 hPa WSW 3.7 km/h 1 km/h 94% 0 mm 241.10 W/m2
08:05 13.7 °C 12.7 °C 1016.5 hPa WSW 1.6 km/h   94% 0 mm 242.10 W/m2
08:10 13.9 °C 13 °C 1016.5 hPa WSW 5.6 km/h 1.6 km/h 94% 0 mm 241.10 W/m2
08:15 14.2 °C 13.2 °C 1016.5 hPa NW 5.6 km/h 1 km/h 94% 0 mm 242.10 W/m2
08:20 14.3 °C 13.2 °C 1016.5 hPa West 1.9 km/h 0.3 km/h 93% 0 mm 250.20 W/m2
08:25 14.6 °C 13.3 °C 1016.5 hPa West 1.9 km/h 0.3 km/h 92% 0 mm 253.20 W/m2
08:30 14.8 °C 13.3 °C 1016.5 hPa NW 1.9 km/h 0.2 km/h 91% 0 mm 249.20 W/m2
08:35 15 °C 13.4 °C 1016.5 hPa West 5.6 km/h 3.1 km/h 90% 0 mm 251.20 W/m2
08:40 15.3 °C 13.3 °C 1016.5 hPa NNW 5.6 km/h 2.9 km/h 88% 0 mm 249.20 W/m2
08:45 15.5 °C 13.3 °C 1016.5 hPa NW 1.9 km/h 0.3 km/h 87% 0 mm 252.20 W/m2
08:50 15.8 °C 13.8 °C 1016.5 hPa NW 3.7 km/h 0.3 km/h 88% 0 mm 253.20 W/m2
08:55 15.9 °C 13.6 °C 1016.5 hPa WSW 6.4 km/h 0.8 km/h 86% 0 mm 256.20 W/m2
09:00 16.1 °C 13.8 °C 1016.5 hPa North 3.7 km/h 0.8 km/h 86% 0 mm 248.20 W/m2
09:05 16.3 °C 14 °C 1016.5 hPa WSW 4.8 km/h 0.3 km/h 86% 0 mm 253.20 W/m2
09:10 16.5 °C 13.4 °C 1016.1 hPa NW 3.7 km/h 1.6 km/h 82% 0 mm 266.30 W/m2
09:15 16.7 °C 14 °C 1016.1 hPa NNW 8 km/h 2.6 km/h 84% 0 mm 265.30 W/m2
09:20 16.9 °C 13.8 °C 1016.1 hPa Calm     82% 0 mm 261.30 W/m2
09:25 17.1 °C 13.9 °C 1016.1 hPa WSW 11.1 km/h 4.8 km/h 82% 0 mm 258.30 W/m2
09:30 17.2 °C 13.7 °C 1016.1 hPa NW 5.6 km/h 1 km/h 80% 0 mm 259.30 W/m2
09:35 17.3 °C 13.8 °C 1016.1 hPa NE 1.9 km/h   80% 0 mm 265.30 W/m2
09:40 17.4 °C 13.8 °C 1016.1 hPa NNE 5.6 km/h 0.8 km/h 79% 0 mm 265.30 W/m2
09:45 17.5 °C 13.6 °C 1016.5 hPa East 5.6 km/h 2.6 km/h 78% 0 mm 257.20 W/m2
09:50 17.6 °C 13.7 °C 1016.5 hPa West 5.6 km/h 3.9 km/h 78% 0 mm 258.30 W/m2
09:55 17.7 °C 13.8 °C 1016.5 hPa North 3.7 km/h 2.1 km/h 78% 0 mm 275.40 W/m2
10:00 17.8 °C 13.9 °C 1016.5 hPa North 1.9 km/h 0.3 km/h 78% 0 mm 262.30 W/m2
10:05 18 °C 13.7 °C 1016.5 hPa NNW 6.4 km/h 4 km/h 76% 0 mm 273.40 W/m2
10:10 18.2 °C 13.7 °C 1016.5 hPa West 3.7 km/h 0.6 km/h 75% 0 mm 269.40 W/m2
10:15 18.3 °C 13.8 °C 1016.5 hPa WSW 7.4 km/h 3.4 km/h 75% 0 mm 269.40 W/m2
10:20 18.4 °C 13.7 °C 1016.5 hPa NW 5.6 km/h 2.6 km/h 74% 0 mm 280.50 W/m2
10:25 18.7 °C 13.9 °C 1016.5 hPa West 3.7 km/h 1 km/h 74% 0 mm 289.60 W/m2
10:30 18.8 °C 13.4 °C 1016.8 hPa WSW 5.6 km/h 1.4 km/h 71% 0 mm 295.60 W/m2
10:35 18.9 °C 13.1 °C 1016.8 hPa ENE 13 km/h 5 km/h 69% 0 mm 305.70 W/m2
10:40 19.2 °C 12.9 °C 1016.8 hPa NNW 13 km/h 7.9 km/h 67% 0 mm 313.80 W/m2
10:45 19.3 °C 13 °C 1016.8 hPa SW 14.8 km/h 7.6 km/h 67% 0 mm 306.70 W/m2
10:50 19.4 °C 13.1 °C 1017.2 hPa SSW 8 km/h 4.2 km/h 67% 0 mm 305.70 W/m2
10:55 19.5 °C 13 °C 1016.8 hPa West 16.1 km/h 5.3 km/h 66% 0 mm 310.80 W/m2
11:00 19.6 °C 13.3 °C 1016.8 hPa NW 8 km/h 1.9 km/h 67% 0 mm 312.80 W/m2
11:05 19.7 °C 12.9 °C 1016.8 hPa WSW 9.7 km/h 4 km/h 65% 0 mm 317.80 W/m2
11:10 19.8 °C 13.2 °C 1016.8 hPa NW 16.7 km/h 4.7 km/h 66% 0 mm 327.90 W/m2
11:15 19.9 °C 12.9 °C 1016.8 hPa NNW 13 km/h 6.9 km/h 64% 0 mm 345.10 W/m2
11:20 19.9 °C 13.4 °C 1016.8 hPa WSW 1.9 km/h 0.2 km/h 66% 0 mm 381.50 W/m2
11:25 20 °C 12.5 °C 1016.8 hPa NE 3.7 km/h 1 km/h 62% 0 mm 627.90 W/m2
11:30 20 °C 12.7 °C 1016.5 hPa West 9.7 km/h 4 km/h 63% 0 mm 479.40 W/m2
11:35 20 °C 11.7 °C 1016.8 hPa West 11.1 km/h 5.3 km/h 59% 0 mm 565.30 W/m2
11:40 20.2 °C 12.2 °C 1016.5 hPa NNE 14.8 km/h 9 km/h 60% 0 mm 819.80 W/m2
11:45 20.3 °C 12.5 °C 1016.5 hPa East 3.7 km/h 1.6 km/h 61% 0 mm 831.90 W/m2
11:50 20.4 °C 12.4 °C 1016.8 hPa WSW 9.3 km/h 2.7 km/h 60% 0 mm 799.60 W/m2
11:55 20.5 °C 11.7 °C 1016.5 hPa ENE 13 km/h 6.6 km/h 57% 0 mm 712.80 W/m2
12:00 20.6 °C 12 °C 1016.5 hPa West 5.6 km/h 2.3 km/h 58% 0 mm 808.70 W/m2
12:05 20.6 °C 11.5 °C 1016.8 hPa West 9.7 km/h 5.5 km/h 56% 0 mm 601.70 W/m2
12:10 20.6 °C 11 °C 1016.8 hPa West 13 km/h 3.2 km/h 54% 0 mm 828.90 W/m2
12:15 20.7 °C 11 °C 1016.5 hPa WNW 11.3 km/h 3.1 km/h 54% 0 mm 856.20 W/m2
12:20 20.7 °C 11.3 °C 1016.5 hPa WNW 8 km/h 3.5 km/h 55% 0 mm 856.20 W/m2
12:25 20.7 °C 11.1 °C 1016.5 hPa North 7.4 km/h 4.8 km/h 54% 0 mm 856.20 W/m2
12:30 20.8 °C 11.1 °C 1016.5 hPa West 7.4 km/h 2.9 km/h 54% 0 mm 856.20 W/m2
12:35 20.8 °C 10.3 °C 1016.5 hPa West 16.7 km/h 6.6 km/h 51% 0 mm 856.20 W/m2
12:40 20.8 °C 10.6 °C 1016.5 hPa WNW 3.7 km/h 1.9 km/h 52% 0 mm 856.20 W/m2
12:45 21 °C 10.8 °C 1016.5 hPa NE 7.4 km/h 2.4 km/h 52% 0 mm 856.20 W/m2
12:50 21.2 °C 10.6 °C 1016.5 hPa NNW 5.6 km/h 3.2 km/h 51% 0 mm 856.20 W/m2
12:55 21.2 °C 10.4 °C 1016.5 hPa SW 13 km/h 5.5 km/h 50% 0 mm 856.20 W/m2
13:00 21.4 °C 11.1 °C 1016.5 hPa NE 5.6 km/h 1.4 km/h 52% 0 mm 856.20 W/m2
13:05 21.4 °C 10.2 °C 1016.5 hPa NE 7.4 km/h 3.2 km/h 49% 0 mm 879.40 W/m2
13:10 21.3 °C 10.2 °C 1016.5 hPa NW 9.3 km/h 3.1 km/h 49% 0 mm 874.30 W/m2
13:15 21.5 °C 10.9 °C 1016.5 hPa WSW 13 km/h 4.3 km/h 51% 0 mm 870.30 W/m2
13:20 21.4 °C 9.7 °C 1016.5 hPa North 9.3 km/h 5.8 km/h 47% 0 mm 436.00 W/m2
13:25 21.3 °C 10.2 °C 1016.5 hPa WNW 4.8 km/h 1.3 km/h 49% 0 mm 412.80 W/m2
13:30 21.4 °C 10.6 °C 1016.5 hPa WNW 7.4 km/h 4.2 km/h 50% 0 mm 514.80 W/m2
13:35 21.3 °C 10.5 °C 1016.5 hPa SW 7.4 km/h 2.3 km/h 50% 0 mm 377.40 W/m2
13:40 21.4 °C 11.1 °C 1016.5 hPa WNW 3.7 km/h 1.8 km/h 52% 0 mm 326.90 W/m2
13:45 21.4 °C 11.4 °C 1016.5 hPa West 7.4 km/h 2.9 km/h 53% 0 mm 326.90 W/m2
13:50 21.3 °C 10.2 °C 1016.5 hPa West 13 km/h 6.6 km/h 49% 0 mm 366.30 W/m2
13:55 21.3 °C 11.3 °C 1016.5 hPa NE 6.4 km/h 3.1 km/h 53% 0 mm 361.30 W/m2
14:00 21.3 °C 11 °C 1016.1 hPa North 7.4 km/h 4 km/h 52% 0 mm 365.30 W/m2
14:05 21.3 °C 11.3 °C 1016.5 hPa NNE 3.7 km/h 1.6 km/h 53% 0 mm 362.30 W/m2
14:10 21.4 °C 10.2 °C 1016.5 hPa SW 7.4 km/h 5.3 km/h 49% 0 mm 348.10 W/m2
14:15 21.3 °C 9.9 °C 1016.1 hPa NW 11.1 km/h 7.1 km/h 48% 0 mm 348.10 W/m2
14:20 21.4 °C 10.8 °C 1016.1 hPa West 11.1 km/h 6.4 km/h 51% 0 mm 389.60 W/m2
14:25 21.4 °C 10.3 °C 1016.1 hPa West 7.4 km/h 5 km/h 49% 0 mm 371.40 W/m2
14:30 21.4 °C 9.9 °C 1016.1 hPa WSW 9.3 km/h 5.3 km/h 48% 0 mm 372.40 W/m2
14:35 21.2 °C 10.4 °C 1016.1 hPa SSW 13 km/h 4.7 km/h 50% 0 mm 379.40 W/m2
14:40 21.1 °C 10.3 °C 1016.1 hPa WNW 8 km/h 1.9 km/h 50% 0 mm 374.40 W/m2
14:45 21.3 °C 11 °C 1016.1 hPa East 8 km/h 2.7 km/h 52% 0 mm 431.00 W/m2
14:50 21.4 °C 10.6 °C 1016.1 hPa NW 12.9 km/h 6.1 km/h 50% 0 mm 397.60 W/m2
14:55 21.4 °C 10.3 °C 1016.1 hPa ENE 5.6 km/h 1.4 km/h 49% 0 mm 368.30 W/m2
15:00 21.3 °C 10.5 °C 1016.1 hPa NNW 3.7 km/h 1.3 km/h 50% 0 mm 374.40 W/m2
15:05 21.3 °C 10.1 °C 1016.1 hPa WSW 7.4 km/h 4.5 km/h 49% 0 mm 374.40 W/m2
15:10 21.2 °C 10 °C 1016.1 hPa West 6.4 km/h 3.1 km/h 49% 0 mm 470.30 W/m2
15:15 21.1 °C 10.2 °C 1015.8 hPa WSW 5.6 km/h 4.2 km/h 50% 0 mm 434.00 W/m2
15:20 21.1 °C 11.1 °C 1016.1 hPa West 5.6 km/h 2.7 km/h 53% 0 mm 395.60 W/m2
15:25 21.3 °C 10.7 °C 1016.1 hPa NNW 5.6 km/h 2.4 km/h 51% 0 mm 861.20 W/m2
15:30 21.4 °C 11.2 °C 1016.1 hPa WSW 3.7 km/h 1.4 km/h 52% 0 mm 406.70 W/m2
15:35 21.4 °C 10.9 °C 1016.1 hPa West 11.1 km/h 3.2 km/h 51% 0 mm 391.60 W/m2
15:40 21.5 °C 10.9 °C 1016.1 hPa ENE 7.4 km/h 3.9 km/h 51% 0 mm 686.50 W/m2
15:45 21.5 °C 10.9 °C 1016.1 hPa NW 5.6 km/h 3.1 km/h 51% 0 mm 460.30 W/m2
15:50 21.6 °C 11.6 °C 1016.1 hPa NNW 11.1 km/h 5 km/h 53% 0 mm 892.50 W/m2
15:55 21.6 °C 11.8 °C 1016.1 hPa SW 5.6 km/h 2.4 km/h 54% 0 mm 876.40 W/m2
16:00 21.6 °C 11 °C 1015.8 hPa WSW 6.4 km/h 1.9 km/h 51% 0 mm 701.60 W/m2
16:05 21.5 °C 10.6 °C 1015.8 hPa North 4.8 km/h 1.9 km/h 50% 0 mm 448.10 W/m2
16:10 21.5 °C 10.6 °C 1016.1 hPa WSW 9.7 km/h 2.9 km/h 50% 0 mm 369.30 W/m2
16:15 21.5 °C 10.3 °C 1015.8 hPa West 11.1 km/h 6 km/h 49% 0 mm 373.40 W/m2
16:20 21.5 °C 10.3 °C 1015.8 hPa WNW 9.7 km/h 1.6 km/h 49% 0 mm 378.40 W/m2
16:25 21.5 °C 11.5 °C 1015.8 hPa North 3.7 km/h 0.5 km/h 53% 0 mm 378.40 W/m2
16:30 21.7 °C 10.8 °C 1015.8 hPa WSW 3.7 km/h 0.6 km/h 50% 0 mm 401.70 W/m2
16:35 21.8 °C 12.1 °C 1015.8 hPa WSW 5.6 km/h 1.4 km/h 54% 0 mm 847.10 W/m2
16:40 22.1 °C 12.1 °C 1015.8 hPa NW 1.9 km/h   53% 0 mm 887.50 W/m2
16:45 22.2 °C 11.6 °C 1015.8 hPa NNE 5.6 km/h 4.2 km/h 51% 0 mm 874.30 W/m2
16:50 22.2 °C 10.6 °C 1015.8 hPa NNE 5.6 km/h 3.2 km/h 48% 0 mm 874.30 W/m2
16:55 22.2 °C 10.6 °C 1015.8 hPa SW 9.3 km/h 2.9 km/h 48% 0 mm 881.40 W/m2
17:00 22.3 °C 11.9 °C 1016.1 hPa SW 5.6 km/h 2.1 km/h 52% 0 mm 874.30 W/m2
17:05 22.3 °C 11.4 °C 1016.1 hPa SW 1.9 km/h 0.6 km/h 50% 0 mm 878.40 W/m2
17:10 22.3 °C 11.1 °C 1015.8 hPa West 7.4 km/h 2.6 km/h 49% 0 mm 398.60 W/m2
17:15 22.2 °C 11.6 °C 1015.8 hPa WSW 7.4 km/h 3.1 km/h 51% 0 mm 421.90 W/m2
17:20 22 °C 11.4 °C 1015.8 hPa WSW 1.9 km/h   51% 0 mm 385.50 W/m2
17:25 21.8 °C 11.8 °C 1015.8 hPa NW 1.9 km/h 0.3 km/h 53% 0 mm 321.90 W/m2
17:30 21.6 °C 12.1 °C 1015.8 hPa Calm     55% 0 mm 374.40 W/m2
17:35 21.4 °C 12 °C 1015.8 hPa Calm     55% 0 mm 374.40 W/m2
17:40 21.6 °C 11.8 °C 1015.8 hPa WNW 3.7 km/h 0.3 km/h 54% 0 mm 374.40 W/m2
17:45 21.7 °C 13.3 °C 1015.8 hPa WNW 3.7 km/h 0.5 km/h 59% 0 mm 374.40 W/m2
17:50 21.8 °C 11.8 °C 1015.8 hPa NW 5.6 km/h 1 km/h 53% 0 mm 374.40 W/m2
17:55 21.8 °C 12.6 °C 1015.8 hPa NW 3.2 km/h 0.8 km/h 56% 0 mm 374.40 W/m2
18:00 21.7 °C 11.4 °C 1016.1 hPa WNW 5.6 km/h 2.1 km/h 52% 0 mm 374.40 W/m2
18:05 21.7 °C 11.7 °C 1015.8 hPa WNW 6.4 km/h 2.6 km/h 53% 0 mm 374.40 W/m2
18:10 21.6 °C 12.2 °C 1015.8 hPa West 5.6 km/h 2.6 km/h 55% 0 mm 374.40 W/m2
18:15 21.4 °C 12 °C 1015.8 hPa WNW 1.9 km/h 0.5 km/h 55% 0 mm 374.40 W/m2
18:20 21.3 °C 11.9 °C 1015.8 hPa WNW 5.6 km/h 2.3 km/h 55% 0 mm 374.40 W/m2
18:25 21.1 °C 13.3 °C 1015.8 hPa WNW 1.9 km/h   61% 0 mm 374.40 W/m2
18:30 20.9 °C 12.9 °C 1015.8 hPa WNW 1.9 km/h   60% 0 mm 374.40 W/m2
18:35 20.7 °C 13.4 °C 1015.8 hPa Calm     63% 0 mm 374.40 W/m2
18:40 20.4 °C 13.7 °C 1015.8 hPa Calm     65% 0 mm 374.40 W/m2
18:45 20.1 °C 13.3 °C 1015.8 hPa Calm     65% 0 mm 374.40 W/m2
18:50 19.7 °C 13.4 °C 1015.5 hPa Calm     67% 0 mm 374.40 W/m2
18:55 19.4 °C 13.3 °C 1015.5 hPa Calm     68% 0 mm 374.40 W/m2
19:00 19.1 °C 13.4 °C 1015.5 hPa Calm     70% 0 mm 374.40 W/m2
19:05 18.7 °C 13.7 °C 1015.5 hPa Calm     73% 0 mm 374.40 W/m2
19:10 18.3 °C 13.8 °C 1015.5 hPa Calm     75% 0 mm 374.40 W/m2
19:15 18.1 °C 13.8 °C 1015.5 hPa Calm     76% 0 mm 374.40 W/m2
19:20 17.8 °C 13.7 °C 1015.5 hPa Calm     77% 0 mm 374.40 W/m2
19:25 17.7 °C 13.8 °C 1015.5 hPa Calm     78% 0 mm 374.40 W/m2
19:30 17.5 °C 14 °C 1015.1 hPa Calm     80% 0 mm 374.40 W/m2
19:35 17.3 °C 14.1 °C 1015.1 hPa Calm     81% 0 mm 374.40 W/m2
19:40 17.2 °C 14.1 °C 1015.1 hPa Calm     82% 0 mm 374.40 W/m2
19:45 17.2 °C 14.1 °C 1015.1 hPa Calm     82% 0 mm 374.40 W/m2
19:50 17.1 °C 14.2 °C 1015.5 hPa Calm     83% 0 mm 374.40 W/m2
19:55 16.9 °C 14.1 °C 1015.5 hPa Calm     83% 0 mm 374.40 W/m2
20:00 16.8 °C 14.1 °C 1015.5 hPa Calm     84% 0 mm 374.40 W/m2
20:05 16.7 °C 14.2 °C 1015.5 hPa Calm     85% 0 mm 374.40 W/m2
20:10 16.7 °C 14.1 °C 1015.5 hPa Calm     85% 0 mm 374.40 W/m2
20:15 16.6 °C 14 °C 1015.5 hPa Calm     85% 0 mm 374.40 W/m2
20:20 16.4 °C 13.8 °C 1015.5 hPa Calm     85% 0 mm 374.40 W/m2
20:25 16.2 °C 13.7 °C 1015.5 hPa Calm     85% 0 mm 374.40 W/m2
20:30 16.1 °C 13.7 °C 1015.5 hPa Calm     86% 0 mm 374.40 W/m2
20:35 16 °C 13.7 °C 1015.5 hPa Calm     86% 0 mm 374.40 W/m2
20:40 15.9 °C 13.6 °C 1015.5 hPa Calm     86% 0 mm 374.40 W/m2
20:45 15.8 °C 13.5 °C 1015.8 hPa Calm     86% 0 mm 374.40 W/m2
20:50 15.8 °C 13.6 °C 1015.8 hPa Calm     87% 0 mm 374.40 W/m2
20:55 15.7 °C 13.5 °C 1015.8 hPa Calm     87% 0 mm 374.40 W/m2
21:00 15.6 °C 13.4 °C 1015.8 hPa Calm     87% 0 mm 374.40 W/m2
21:05 15.4 °C 13.3 °C 1015.8 hPa Calm     87% 0 mm 374.40 W/m2
21:10 15.2 °C 13.1 °C 1015.8 hPa Calm     87% 0 mm 0.00 W/m2
21:15 15.1 °C 12.9 °C 1015.8 hPa Calm     87% 0 mm 0.00 W/m2
21:20 14.9 °C 12.9 °C 1016.1 hPa Calm     88% 0 mm 0.00 W/m2
21:25 14.7 °C 12.8 °C 1016.1 hPa Calm     88% 0 mm 0.00 W/m2
21:30 14.5 °C 12.6 °C 1016.1 hPa Calm     88% 0 mm 0.00 W/m2
21:35 14.3 °C 12.4 °C 1016.1 hPa Calm     88% 0 mm 0.00 W/m2
21:40 14.2 °C 12.2 °C 1016.1 hPa Calm     88% 0 mm 0.00 W/m2
21:45 14.1 °C 12.3 °C 1016.1 hPa Calm     89% 0 mm 0.00 W/m2
21:50 13.8 °C 12.1 °C 1016.1 hPa Calm     89% 0 mm 0.00 W/m2
21:55 13.7 °C 11.9 °C 1016.1 hPa Calm     89% 0 mm 0.00 W/m2
22:00 13.6 °C 11.8 °C 1016.1 hPa Calm     89% 0 mm 0.00 W/m2
22:05 13.4 °C 11.8 °C 1016.5 hPa Calm     90% 0 mm 0.00 W/m2
22:10 13.3 °C 11.7 °C 1016.5 hPa Calm     90% 0 mm 0.00 W/m2
22:15 13.2 °C 11.6 °C 1016.5 hPa Calm     90% 0 mm 0.00 W/m2
22:20 13.1 °C 11.4 °C 1016.5 hPa Calm     90% 0 mm 0.00 W/m2
22:25 12.9 °C 11.3 °C 1016.5 hPa Calm     90% 0 mm 0.00 W/m2
22:30 12.8 °C 11.2 °C 1016.5 hPa Calm     90% 0 mm 0.00 W/m2
22:35 12.8 °C 11.2 °C 1016.5 hPa Calm     90% 0 mm 0.00 W/m2
22:40 12.7 °C 11.1 °C 1016.5 hPa Calm     90% 0 mm 0.00 W/m2
22:45 12.6 °C 11.1 °C 1016.5 hPa Calm     91% 0 mm 0.00 W/m2
22:50 12.5 °C 11.1 °C 1016.5 hPa Calm     91% 0 mm 0.00 W/m2
22:55 12.4 °C 10.9 °C 1016.5 hPa Calm     91% 0 mm 0.00 W/m2
23:00 12.3 °C 10.8 °C 1016.8 hPa Calm     91% 0 mm 0.00 W/m2
23:05 12.2 °C 10.7 °C 1016.8 hPa Calm     91% 0 mm 0.00 W/m2
23:10 12.1 °C 10.6 °C 1016.5 hPa Calm     91% 0 mm 0.00 W/m2
23:15 12 °C 10.6 °C 1016.8 hPa Calm     91% 0 mm 0.00 W/m2
23:20 11.9 °C 10.4 °C 1016.8 hPa Calm     91% 0 mm 0.00 W/m2
23:25 11.8 °C 10.4 °C 1016.8 hPa Calm     91% 0 mm 0.00 W/m2
23:30 11.8 °C 10.3 °C 1016.8 hPa Calm     91% 0 mm 0.00 W/m2
23:35 11.7 °C 10.3 °C 1016.8 hPa Calm     91% 0 mm 0.00 W/m2
23:40 11.7 °C 10.2 °C 1016.8 hPa Calm     91% 0 mm 0.00 W/m2
23:45 11.6 °C 10.3 °C 1016.8 hPa Calm     92% 0 mm 0.00 W/m2
23:50 11.6 °C 10.3 °C 1016.8 hPa Calm     92% 0 mm 0.00 W/m2
23:55 11.6 °C 10.3 °C 1016.8 hPa Calm     92% 0 mm 0.00 W/m2
Winter, Wisconsin USA
Compliments of Weather Underground - 4 mb